createdAt,value
2023-03-24T00:01:07.740Z,3.13
2023-03-24T00:03:36.582Z,1.97
2023-03-24T00:06:05.623Z,3.37
2023-03-24T00:08:37.784Z,1.60
2023-03-24T00:11:11.640Z,2.13
2023-03-24T00:13:39.872Z,1.73
2023-03-24T00:16:12.530Z,2.10
2023-03-24T00:18:39.994Z,2.03
2023-03-24T00:21:08.945Z,2.40
2023-03-24T00:23:36.239Z,2.30
2023-03-24T00:26:09.166Z,1.97
2023-03-24T00:28:37.127Z,2.53
2023-03-24T00:31:06.555Z,2.50
2023-03-24T00:33:35.094Z,2.67
2023-03-24T00:36:07.362Z,1.60
2023-03-24T00:38:35.202Z,2.07
2023-03-24T00:41:02.757Z,2.50
2023-03-24T00:43:29.985Z,1.57
2023-03-24T00:46:01.993Z,1.70
2023-03-24T00:48:30.311Z,2.20
2023-03-24T00:50:57.156Z,1.97
2023-03-24T00:53:25.882Z,2.77
2023-03-24T00:55:52.805Z,3.00
2023-03-24T00:58:21.880Z,1.70
2023-03-24T01:00:54.595Z,2.10
2023-03-24T01:03:27.381Z,2.10
2023-03-24T01:05:57.750Z,1.67
2023-03-24T01:08:25.709Z,2.40
2023-03-24T01:10:53.398Z,2.03
2023-03-24T01:13:26.881Z,2.57
2023-03-24T01:15:54.754Z,2.10
2023-03-24T01:18:23.950Z,1.87
2023-03-24T01:20:51.343Z,2.30
2023-03-24T01:23:23.366Z,1.83
2023-03-24T01:25:51.176Z,2.07
2023-03-24T01:28:25.033Z,2.67
2023-03-24T01:30:53.232Z,2.17
2023-03-24T01:33:21.090Z,2.30
2023-03-24T01:35:48.702Z,2.30
2023-03-24T01:38:16.054Z,2.00
2023-03-24T01:40:45.661Z,2.47
2023-03-24T01:43:26.704Z,2.20
2023-03-24T01:46:08.245Z,1.93
2023-03-24T01:48:46.964Z,1.73
2023-03-24T01:51:34.797Z,1.77
2023-03-24T01:54:09.635Z,2.43
2023-03-24T01:56:43.802Z,1.70
2023-03-24T01:59:14.657Z,1.70
2023-03-24T02:01:42.117Z,1.87
2023-03-24T02:04:09.532Z,2.47
2023-03-24T02:06:41.444Z,3.50
2023-03-24T02:09:09.767Z,1.83
2023-03-24T02:11:38.244Z,1.87
2023-03-24T02:14:07.218Z,3.03
2023-03-24T02:16:49.024Z,2.20
2023-03-24T02:19:25.024Z,2.33
2023-03-24T02:22:01.530Z,1.77
2023-03-24T02:25:16.408Z,2.70
2023-03-24T02:27:44.193Z,2.17
2023-03-24T02:30:25.745Z,2.53
2023-03-24T02:33:37.002Z,2.80
2023-03-24T02:36:28.602Z,2.40
2023-03-24T02:39:14.325Z,3.30
2023-03-24T02:41:43.890Z,2.33
2023-03-24T02:44:33.865Z,2.33
2023-03-24T02:47:12.898Z,2.13
2023-03-24T02:50:00.423Z,1.87
2023-03-24T02:52:37.683Z,1.50
2023-03-24T02:55:31.668Z,1.97
2023-03-24T02:58:19.076Z,1.70
2023-03-24T03:00:59.589Z,1.33
2023-03-24T03:03:38.505Z,2.47
2023-03-24T03:06:15.563Z,1.50
2023-03-24T03:08:42.718Z,2.13
2023-03-24T03:11:14.052Z,2.87
2023-03-24T03:13:59.166Z,2.47
2023-03-24T03:16:39.305Z,2.47
2023-03-24T03:19:20.384Z,1.93
2023-03-24T03:21:48.904Z,1.50
2023-03-24T03:24:32.425Z,2.00
2023-03-24T03:27:04.565Z,2.17
2023-03-24T03:29:37.326Z,3.30
2023-03-24T03:32:08.142Z,2.20
2023-03-24T03:34:47.084Z,1.87
2023-03-24T03:37:38.496Z,1.40
2023-03-24T03:40:24.681Z,3.03
2023-03-24T03:42:51.912Z,2.20
2023-03-24T03:45:19.030Z,2.03
2023-03-24T03:47:46.880Z,1.87
2023-03-24T03:50:13.964Z,2.07
2023-03-24T03:52:41.721Z,2.73
2023-03-24T03:55:10.147Z,2.20
2023-03-24T03:57:37.455Z,1.93
2023-03-24T04:00:11.984Z,1.30
2023-03-24T04:02:38.858Z,1.33
2023-03-24T04:05:28.187Z,1.97
2023-03-24T04:08:32.636Z,1.93
2023-03-24T04:11:25.945Z,3.43
2023-03-24T04:14:23.131Z,1.23
2023-03-24T04:17:16.900Z,2.70
2023-03-24T04:20:06.086Z,1.80
2023-03-24T04:22:40.500Z,2.90
2023-03-24T04:25:45.232Z,2.50
2023-03-24T04:28:58.148Z,2.53
2023-03-24T04:31:54.577Z,1.87
2023-03-24T04:34:32.089Z,1.50
2023-03-24T04:37:16.300Z,2.73
2023-03-24T04:39:46.925Z,2.53
2023-03-24T04:42:26.701Z,2.63
2023-03-24T04:44:53.588Z,1.93
2023-03-24T04:47:24.264Z,2.13
2023-03-24T04:49:51.172Z,2.33
2023-03-24T04:52:18.212Z,2.33
2023-03-24T04:54:45.584Z,3.87
2023-03-24T04:57:12.506Z,1.87
2023-03-24T04:59:40.680Z,2.77
2023-03-24T05:02:07.673Z,2.17
2023-03-24T05:04:37.308Z,3.27
2023-03-24T05:07:05.199Z,2.40
2023-03-24T05:09:33.064Z,2.10
2023-03-24T05:12:01.553Z,2.50
2023-03-24T05:14:28.814Z,1.83
2023-03-24T05:16:55.772Z,1.60
2023-03-24T05:19:22.628Z,2.10
2023-03-24T05:21:49.536Z,2.30
2023-03-24T05:24:16.375Z,2.20
2023-03-24T05:26:43.310Z,2.00
2023-03-24T05:29:10.340Z,2.80
2023-03-24T05:31:37.147Z,2.77
2023-03-24T05:34:04.125Z,1.47
2023-03-24T05:36:31.332Z,2.17
2023-03-24T05:38:58.309Z,2.40
2023-03-24T05:41:25.181Z,2.43
2023-03-24T05:43:52.057Z,2.87
2023-03-24T05:46:18.990Z,2.97
2023-03-24T05:48:47.044Z,2.77
2023-03-24T05:51:13.908Z,2.43
2023-03-24T05:53:40.854Z,2.87
2023-03-24T05:56:11.912Z,2.87
2023-03-24T05:58:39.379Z,1.63
2023-03-24T06:01:10.385Z,3.67
2023-03-24T06:03:58.392Z,2.33
2023-03-24T06:06:26.314Z,2.90
2023-03-24T06:08:54.671Z,1.83
2023-03-24T06:11:21.509Z,1.63
2023-03-24T06:13:48.856Z,4.17
2023-03-24T06:16:18.749Z,1.83
2023-03-24T06:18:53.145Z,2.87
2023-03-24T06:21:21.047Z,2.27
2023-03-24T06:23:48.180Z,2.70
2023-03-24T06:26:16.775Z,2.83
2023-03-24T06:28:44.030Z,2.27
2023-03-24T06:31:18.788Z,2.10
2023-03-24T06:33:46.405Z,3.50
2023-03-24T06:36:14.259Z,2.47
2023-03-24T06:38:42.175Z,2.53
2023-03-24T06:41:09.302Z,2.27
2023-03-24T06:43:36.274Z,2.23
2023-03-24T06:46:03.162Z,2.33
2023-03-24T06:48:30.123Z,2.73
2023-03-24T06:50:57.024Z,2.33
2023-03-24T06:53:23.867Z,2.87
2023-03-24T06:55:51.157Z,3.40
2023-03-24T06:58:18.386Z,2.13
2023-03-24T07:00:47.093Z,2.40
2023-03-24T07:03:15.999Z,2.90
2023-03-24T07:05:45.177Z,2.17
2023-03-24T07:10:44.099Z,2.20
2023-03-24T07:13:11.614Z,3.03
2023-03-24T07:15:38.455Z,2.43
2023-03-24T07:18:05.578Z,3.30
2023-03-24T07:20:32.478Z,2.57
2023-03-24T07:22:59.320Z,3.03
2023-03-24T07:25:26.904Z,2.67
2023-03-24T07:27:56.033Z,2.20
2023-03-24T07:30:30.034Z,1.57
2023-03-24T07:32:57.461Z,2.13
2023-03-24T07:35:24.419Z,2.37
2023-03-24T07:37:51.483Z,2.10
2023-03-24T07:40:18.884Z,2.73
2023-03-24T07:42:47.148Z,2.47
2023-03-24T07:45:14.450Z,2.53
2023-03-24T07:47:44.449Z,2.27
2023-03-24T07:50:12.828Z,1.87
2023-03-24T07:52:41.272Z,2.37
2023-03-24T07:55:13.158Z,1.50
2023-03-24T07:57:45.810Z,2.07
2023-03-24T08:00:18.015Z,2.07
2023-03-24T08:02:47.335Z,2.20
2023-03-24T08:05:14.863Z,3.27
2023-03-24T08:07:43.026Z,2.27
2023-03-24T08:10:15.532Z,2.87
2023-03-24T08:12:42.486Z,1.90
2023-03-24T08:15:10.066Z,1.97
2023-03-24T08:17:37.240Z,2.27
2023-03-24T08:20:08.385Z,1.70
2023-03-24T08:22:36.939Z,2.37
2023-03-24T08:25:03.922Z,2.20
2023-03-24T08:27:30.802Z,2.77
2023-03-24T08:29:57.617Z,1.67
2023-03-24T08:32:24.484Z,2.23
2023-03-24T08:34:51.348Z,2.50
2023-03-24T08:37:18.174Z,2.30
2023-03-24T08:39:45.013Z,1.57
2023-03-24T08:42:11.818Z,1.93
2023-03-24T08:44:38.825Z,2.57
2023-03-24T08:47:05.876Z,1.43
2023-03-24T08:49:32.708Z,1.50
2023-03-24T08:51:59.509Z,1.53
2023-03-24T08:54:26.439Z,2.43
2023-03-24T08:56:53.411Z,1.73
2023-03-24T08:59:20.381Z,1.70
2023-03-24T09:01:47.223Z,2.43
2023-03-24T09:04:14.161Z,1.77
2023-03-24T09:06:41.670Z,1.43
2023-03-24T09:09:08.484Z,1.63
2023-03-24T09:11:36.317Z,1.20
2023-03-24T09:14:04.877Z,1.43
2023-03-24T09:16:31.843Z,1.03
2023-03-24T09:18:58.812Z,1.90
2023-03-24T09:21:25.754Z,1.27
2023-03-24T09:23:52.699Z,2.00
2023-03-24T09:26:19.648Z,1.20
2023-03-24T09:28:46.617Z,1.83
2023-03-24T09:31:13.599Z,2.00
2023-03-24T09:33:40.724Z,1.63
2023-03-24T09:36:08.393Z,1.43
2023-03-24T09:38:35.320Z,1.30
2023-03-24T09:41:03.466Z,1.07
2023-03-24T09:43:48.782Z,1.13
2023-03-24T09:46:26.173Z,2.03
2023-03-24T09:48:56.770Z,0.97
2023-03-24T09:51:55.181Z,1.70
2023-03-24T09:54:27.335Z,2.50
2023-03-24T09:56:56.101Z,1.53
2023-03-24T09:59:41.570Z,1.80
2023-03-24T10:02:18.309Z,2.50
2023-03-24T10:04:45.519Z,1.63
2023-03-24T10:07:31.272Z,1.67
2023-03-24T10:09:59.888Z,1.70
2023-03-24T10:12:41.296Z,2.03
2023-03-24T10:15:37.215Z,1.20
2023-03-24T10:18:25.038Z,1.83
2023-03-24T10:21:07.485Z,1.43
2023-03-24T10:23:41.031Z,1.43
2023-03-24T10:26:11.042Z,1.77
2023-03-24T10:29:01.139Z,1.90
2023-03-24T10:31:36.407Z,1.43
2023-03-24T10:34:03.392Z,1.70
2023-03-24T10:36:30.967Z,1.63
2023-03-24T10:39:01.896Z,1.40
2023-03-24T10:41:35.400Z,2.50
2023-03-24T10:44:02.614Z,2.43
2023-03-24T10:46:32.256Z,2.03
2023-03-24T10:49:16.838Z,1.37
2023-03-24T10:51:56.726Z,1.73
2023-03-24T10:54:25.588Z,1.33
2023-03-24T10:57:04.672Z,1.20
2023-03-24T10:59:37.450Z,0.93
2023-03-24T11:02:10.297Z,1.60
2023-03-24T11:04:39.815Z,1.13
2023-03-24T11:07:16.239Z,0.67
2023-03-24T11:09:58.784Z,1.07
2023-03-24T11:12:34.953Z,1.73
2023-03-24T11:15:23.790Z,1.10
2023-03-24T11:17:55.523Z,0.90
2023-03-24T11:20:41.464Z,1.27
2023-03-24T11:23:17.916Z,1.27
2023-03-24T11:26:09.831Z,0.93
2023-03-24T11:29:01.635Z,1.07
2023-03-24T11:31:35.168Z,0.83
2023-03-24T11:34:02.851Z,1.50
2023-03-24T11:36:35.852Z,1.57
2023-03-24T11:39:18.145Z,0.73
2023-03-24T11:42:11.025Z,0.70
2023-03-24T11:44:55.380Z,0.60
2023-03-24T11:47:27.870Z,1.67
2023-03-24T11:50:09.675Z,0.60
2023-03-24T11:52:49.098Z,1.20
2023-03-24T11:55:32.704Z,0.93
2023-03-24T11:58:17.880Z,1.30
2023-03-24T12:00:55.856Z,0.90
2023-03-24T12:04:00.294Z,0.50
2023-03-24T12:06:51.789Z,0.80
2023-03-24T12:09:31.905Z,0.50
2023-03-24T12:12:24.556Z,0.70
2023-03-24T12:15:24.750Z,0.67
2023-03-24T12:18:24.365Z,0.40
2023-03-24T12:21:08.334Z,0.93
2023-03-24T12:23:56.478Z,0.60
2023-03-24T12:26:30.107Z,0.30
2023-03-24T12:29:41.898Z,0.83
2023-03-24T12:32:35.542Z,0.63
2023-03-24T12:35:06.315Z,0.50
2023-03-24T12:37:48.199Z,0.60
2023-03-24T12:40:40.504Z,0.53
2023-03-24T12:43:35.861Z,0.70
2023-03-24T12:46:40.568Z,0.70
2023-03-24T12:49:32.489Z,0.65
2023-03-24T12:52:05.440Z,0.68
2023-03-24T12:54:46.101Z,0.73
2023-03-24T12:57:17.246Z,0.30
2023-03-24T13:00:01.576Z,0.50
2023-03-24T13:02:36.200Z,0.82
2023-03-24T13:05:07.488Z,1.13
2023-03-24T13:07:43.816Z,0.47
2023-03-24T13:10:49.348Z,0.55
2023-03-24T13:13:22.743Z,0.40
2023-03-24T13:16:03.008Z,0.50
2023-03-24T13:18:41.508Z,0.55
2023-03-24T13:21:16.428Z,0.43
2023-03-24T13:24:02.224Z,0.45
2023-03-24T13:26:40.952Z,0.47
2023-03-24T13:29:41.962Z,0.50
2023-03-24T13:32:25.726Z,0.63
2023-03-24T13:35:15.754Z,0.60
2023-03-24T13:37:52.985Z,0.60
2023-03-24T13:40:26.343Z,0.32
2023-03-24T13:43:07.567Z,0.77
2023-03-24T13:45:48.033Z,0.50
2023-03-24T13:48:42.279Z,0.60
2023-03-24T13:51:30.945Z,0.68
2023-03-24T13:54:05.996Z,0.82
2023-03-24T13:56:36.103Z,0.68
2023-03-24T13:59:03.198Z,0.47
2023-03-24T14:01:39.094Z,0.73
2023-03-24T14:04:25.237Z,0.60
2023-03-24T14:06:58.925Z,0.43
2023-03-24T14:09:31.052Z,0.85
2023-03-24T14:12:04.116Z,0.40
2023-03-24T14:14:34.968Z,0.50
2023-03-24T14:17:04.966Z,0.93
2023-03-24T14:19:40.465Z,0.38
2023-03-24T14:22:16.387Z,0.35
2023-03-24T14:24:46.138Z,0.52
2023-03-24T14:27:31.646Z,0.55
2023-03-24T14:30:11.118Z,0.32
2023-03-24T14:32:46.058Z,0.40
2023-03-24T14:35:43.619Z,0.60
2023-03-24T14:38:17.628Z,0.50
2023-03-24T14:40:50.872Z,0.70
2023-03-24T14:43:24.226Z,0.93
2023-03-24T14:45:58.055Z,0.57
2023-03-24T14:48:33.730Z,0.40
2023-03-24T14:51:29.631Z,0.67
2023-03-24T14:53:58.403Z,0.77
2023-03-24T14:56:38.130Z,0.30
2023-03-24T14:59:19.826Z,0.30
2023-03-24T15:01:51.429Z,0.80
2023-03-24T15:04:18.332Z,0.40
2023-03-24T15:06:47.826Z,0.53
2023-03-24T15:09:17.698Z,0.73
2023-03-24T15:11:47.717Z,0.43
2023-03-24T15:14:25.900Z,0.60
2023-03-24T15:17:00.980Z,0.60
2023-03-24T15:19:30.570Z,0.60
2023-03-24T15:22:03.046Z,0.63
2023-03-24T15:24:37.524Z,0.53
2023-03-24T15:27:07.677Z,0.37
2023-03-24T15:29:42.550Z,0.90
2023-03-24T15:32:21.879Z,0.47
2023-03-24T15:34:51.382Z,0.53
2023-03-24T15:37:34.134Z,0.50
2023-03-24T15:40:13.045Z,0.50
2023-03-24T15:42:46.679Z,0.87
2023-03-24T15:45:55.332Z,0.43
2023-03-24T15:48:34.032Z,0.63
2023-03-24T15:51:07.085Z,0.53
2023-03-24T15:53:33.941Z,0.40
2023-03-24T15:56:20.876Z,0.70
2023-03-24T15:59:15.638Z,1.17
2023-03-24T16:01:45.127Z,0.63
2023-03-24T16:04:17.617Z,0.70
2023-03-24T16:06:49.490Z,1.03
2023-03-24T16:09:27.297Z,0.30
2023-03-24T16:11:54.518Z,1.10
2023-03-24T16:14:26.865Z,0.50
2023-03-24T16:16:56.598Z,0.63
2023-03-24T16:19:24.027Z,0.90
2023-03-24T16:21:51.043Z,0.53
2023-03-24T16:24:17.932Z,0.87
2023-03-24T16:26:44.801Z,0.30
2023-03-24T16:29:15.433Z,0.77
2023-03-24T16:31:43.014Z,0.77
2023-03-24T16:34:10.076Z,0.97
2023-03-24T16:36:37.173Z,0.77
2023-03-24T16:39:13.722Z,1.10
2023-03-24T16:41:40.632Z,0.70
2023-03-24T16:44:07.462Z,0.70
2023-03-24T16:46:35.512Z,0.70
2023-03-24T16:49:04.086Z,0.70
2023-03-24T16:51:31.173Z,0.80
2023-03-24T16:53:58.341Z,0.80
2023-03-24T16:56:26.548Z,0.40
2023-03-24T16:58:54.575Z,0.93
2023-03-24T17:01:29.353Z,1.20
2023-03-24T17:03:58.295Z,0.73
2023-03-24T17:06:27.155Z,1.33
2023-03-24T17:08:53.970Z,0.67
2023-03-24T17:11:32.517Z,0.40
2023-03-24T17:14:04.686Z,0.73
2023-03-24T17:16:45.349Z,0.57
2023-03-24T17:19:14.307Z,0.87
2023-03-24T17:22:03.634Z,0.50
2023-03-24T17:24:35.983Z,0.67
2023-03-24T17:27:03.458Z,0.93
2023-03-24T17:29:30.444Z,0.67
2023-03-24T17:31:57.289Z,0.70
2023-03-24T17:34:24.086Z,0.60
2023-03-24T17:36:51.817Z,1.00
2023-03-24T17:39:20.572Z,0.70
2023-03-24T17:41:47.573Z,0.67
2023-03-24T17:44:14.470Z,0.60
2023-03-24T17:46:41.482Z,0.77
2023-03-24T17:49:08.415Z,0.60
2023-03-24T17:51:35.410Z,1.67
2023-03-24T17:54:02.584Z,0.83
2023-03-24T17:56:29.482Z,1.03
2023-03-24T17:58:58.742Z,0.87
2023-03-24T18:01:29.198Z,3.53
2023-03-24T18:03:57.068Z,2.53
2023-03-24T18:06:24.134Z,1.80
2023-03-24T18:08:52.026Z,2.53
2023-03-24T18:11:18.994Z,3.47
2023-03-24T18:13:46.297Z,2.13
2023-03-24T18:16:21.308Z,1.57
2023-03-24T18:18:50.415Z,0.67
2023-03-24T18:21:17.758Z,1.10
2023-03-24T18:23:46.725Z,1.10
2023-03-24T18:26:15.829Z,1.30
2023-03-24T18:28:45.563Z,1.00
2023-03-24T18:31:18.812Z,1.47
2023-03-24T18:33:50.289Z,1.57
2023-03-24T18:36:26.230Z,1.70
2023-03-24T18:39:01.248Z,2.40
2023-03-24T18:41:30.084Z,0.60
2023-03-24T18:43:59.182Z,1.00
2023-03-24T18:46:27.356Z,2.07
2023-03-24T18:48:55.061Z,1.60
2023-03-24T18:51:25.437Z,1.83
2023-03-24T18:53:52.504Z,1.13
2023-03-24T18:56:20.316Z,1.40
2023-03-24T18:58:48.717Z,1.43
2023-03-24T19:01:22.347Z,1.23
2023-03-24T19:03:50.709Z,0.77
2023-03-24T19:06:18.117Z,1.87
2023-03-24T19:08:49.317Z,1.57
2023-03-24T19:11:16.488Z,1.00
2023-03-24T19:13:49.750Z,1.00
2023-03-24T19:16:18.008Z,1.27
2023-03-24T19:18:45.046Z,0.97
2023-03-24T19:21:13.291Z,1.20
2023-03-24T19:23:40.529Z,1.50
2023-03-24T19:26:07.402Z,1.03
2023-03-24T19:28:36.945Z,0.97
2023-03-24T19:31:09.970Z,0.73
2023-03-24T19:33:37.590Z,1.03
2023-03-24T19:36:06.067Z,1.10
2023-03-24T19:38:33.317Z,1.53
2023-03-24T19:41:05.590Z,0.70
2023-03-24T19:43:34.589Z,0.87
2023-03-24T19:46:01.752Z,0.80
2023-03-24T19:48:29.032Z,1.77
2023-03-24T19:50:56.420Z,1.83
2023-03-24T19:53:24.240Z,1.47
2023-03-24T19:55:51.342Z,1.90
2023-03-24T19:58:18.639Z,1.10
2023-03-24T20:00:45.523Z,2.33
2023-03-24T20:03:12.530Z,2.10
2023-03-24T20:05:39.431Z,2.47
2023-03-24T20:08:06.446Z,1.87
2023-03-24T20:10:35.992Z,1.77
2023-03-24T20:13:03.210Z,6.10
2023-03-24T20:15:30.096Z,6.93
2023-03-24T20:17:57.034Z,7.97
2023-03-24T20:20:23.978Z,4.77
2023-03-24T20:22:50.881Z,3.03
2023-03-24T20:25:19.183Z,3.20
2023-03-24T20:27:47.471Z,2.00
2023-03-24T20:30:17.046Z,2.17
2023-03-24T20:32:44.141Z,2.40
2023-03-24T20:35:11.305Z,2.00
2023-03-24T20:37:38.338Z,1.87
2023-03-24T20:40:09.536Z,1.03
2023-03-24T20:42:37.030Z,1.90
2023-03-24T20:45:05.492Z,1.27
2023-03-24T20:47:32.397Z,1.77
2023-03-24T20:49:59.339Z,0.90
2023-03-24T20:52:27.222Z,0.80
2023-03-24T20:54:54.263Z,1.67
2023-03-24T20:57:21.150Z,2.17
2023-03-24T20:59:51.125Z,1.13
2023-03-24T21:02:18.998Z,0.97
2023-03-24T21:04:45.954Z,1.73
2023-03-24T21:07:12.789Z,1.60
2023-03-24T21:09:39.733Z,1.77
2023-03-24T21:12:06.802Z,1.87
2023-03-24T21:14:34.135Z,1.30
2023-03-24T21:17:01.628Z,0.83
2023-03-24T21:19:28.927Z,1.13
2023-03-24T21:21:56.234Z,1.47
2023-03-24T21:24:24.285Z,1.93
2023-03-24T21:26:53.921Z,1.50
2023-03-24T21:29:22.626Z,1.27
2023-03-24T21:31:49.899Z,1.87
2023-03-24T21:34:16.947Z,1.93
2023-03-24T21:36:43.768Z,1.77
2023-03-24T21:39:12.191Z,1.30
2023-03-24T21:41:39.957Z,2.13
2023-03-24T21:44:09.385Z,2.13
2023-03-24T21:46:37.031Z,1.67
2023-03-24T21:49:06.332Z,1.20
2023-03-24T21:51:34.622Z,1.13
2023-03-24T21:54:04.078Z,1.80
2023-03-24T21:56:32.697Z,1.37
2023-03-24T21:59:00.014Z,1.50
2023-03-24T22:01:27.748Z,1.70
2023-03-24T22:03:54.824Z,1.30
2023-03-24T22:06:22.895Z,1.37
2023-03-24T22:08:53.216Z,1.53
2023-03-24T22:11:20.286Z,1.37
2023-03-24T22:13:47.648Z,1.20
2023-03-24T22:16:14.988Z,3.03
2023-03-24T22:18:42.393Z,1.10
2023-03-24T22:21:11.141Z,1.73
2023-03-24T22:23:39.946Z,1.10
2023-03-24T22:26:10.940Z,0.90
2023-03-24T22:28:38.641Z,1.50
2023-03-24T22:31:14.773Z,0.67
2023-03-24T22:33:44.205Z,1.20
2023-03-24T22:36:11.549Z,0.80
2023-03-24T22:38:39.131Z,0.60
2023-03-24T22:41:08.315Z,0.73
2023-03-24T22:43:36.459Z,1.30
2023-03-24T22:46:03.963Z,0.97
2023-03-24T22:48:31.382Z,0.90
2023-03-24T22:50:58.308Z,1.00
2023-03-24T22:53:25.676Z,0.70
2023-03-24T22:55:53.132Z,0.53
2023-03-24T22:58:20.444Z,0.73
2023-03-24T23:00:49.249Z,0.57
2023-03-24T23:03:16.698Z,0.77
2023-03-24T23:05:45.841Z,0.50
2023-03-24T23:08:15.250Z,0.57
2023-03-24T23:10:44.410Z,0.60
2023-03-24T23:13:12.214Z,0.70
2023-03-24T23:15:40.173Z,1.13
2023-03-24T23:18:07.356Z,0.63
2023-03-24T23:20:34.756Z,0.50
2023-03-24T23:23:02.790Z,0.50
2023-03-24T23:25:31.184Z,0.80
2023-03-24T23:27:58.562Z,0.40
2023-03-24T23:30:25.476Z,0.73
2023-03-24T23:32:52.631Z,1.20
2023-03-24T23:35:20.139Z,0.60
2023-03-24T23:37:46.993Z,0.90
2023-03-24T23:40:15.592Z,0.50
2023-03-24T23:42:46.408Z,0.50
2023-03-24T23:45:15.715Z,0.47
2023-03-24T23:47:44.364Z,1.10
2023-03-24T23:50:12.461Z,0.20
2023-03-24T23:52:44.022Z,0.53
2023-03-24T23:55:13.097Z,0.90
2023-03-24T23:57:43.393Z,1.00
